sensor_id;sensor_type;location;lat;lon;timestamp;P1;durP1;ratioP1;P2;durP2;ratioP2
79616;SDS011;69097;52.132;5.422;2023-07-16T00:00:08;7.03;;;1.30;;
79616;SDS011;69097;52.132;5.422;2023-07-16T00:02:37;4.88;;;0.98;;
79616;SDS011;69097;52.132;5.422;2023-07-16T00:05:19;7.72;;;1.08;;
79616;SDS011;69097;52.132;5.422;2023-07-16T00:08:11;4.38;;;1.27;;
79616;SDS011;69097;52.132;5.422;2023-07-16T00:10:40;8.57;;;1.63;;
79616;SDS011;69097;52.132;5.422;2023-07-16T00:13:11;11.15;;;1.52;;
79616;SDS011;69097;52.132;5.422;2023-07-16T00:15:38;6.90;;;1.27;;
79616;SDS011;69097;52.132;5.422;2023-07-16T00:18:04;7.82;;;1.40;;
79616;SDS011;69097;52.132;5.422;2023-07-16T00:20:32;7.10;;;1.20;;
79616;SDS011;69097;52.132;5.422;2023-07-16T00:23:07;7.22;;;2.00;;
79616;SDS011;69097;52.132;5.422;2023-07-16T00:25:37;7.60;;;1.52;;
79616;SDS011;69097;52.132;5.422;2023-07-16T00:28:08;5.18;;;1.38;;
79616;SDS011;69097;52.132;5.422;2023-07-16T00:30:37;6.63;;;1.40;;
79616;SDS011;69097;52.132;5.422;2023-07-16T00:33:03;6.13;;;1.42;;
79616;SDS011;69097;52.132;5.422;2023-07-16T00:35:30;7.18;;;1.50;;
79616;SDS011;69097;52.132;5.422;2023-07-16T00:38:00;8.43;;;1.92;;
79616;SDS011;69097;52.132;5.422;2023-07-16T00:40:48;8.90;;;1.83;;
79616;SDS011;69097;52.132;5.422;2023-07-16T00:43:17;7.75;;;1.73;;
79616;SDS011;69097;52.132;5.422;2023-07-16T00:46:08;10.15;;;1.83;;
79616;SDS011;69097;52.132;5.422;2023-07-16T00:51:47;8.10;;;1.15;;
79616;SDS011;69097;52.132;5.422;2023-07-16T00:54:44;5.75;;;1.88;;
79616;SDS011;69097;52.132;5.422;2023-07-16T00:57:31;6.32;;;1.95;;
79616;SDS011;69097;52.132;5.422;2023-07-16T01:00:44;6.72;;;1.83;;
79616;SDS011;69097;52.132;5.422;2023-07-16T01:03:13;7.65;;;2.05;;
79616;SDS011;69097;52.132;5.422;2023-07-16T01:08:20;11.68;;;2.47;;
79616;SDS011;69097;52.132;5.422;2023-07-16T01:10:53;10.68;;;2.10;;
79616;SDS011;69097;52.132;5.422;2023-07-16T01:13:21;6.95;;;1.88;;
79616;SDS011;69097;52.132;5.422;2023-07-16T01:16:25;7.07;;;1.90;;
79616;SDS011;69097;52.132;5.422;2023-07-16T01:18:54;7.40;;;1.70;;
79616;SDS011;69097;52.132;5.422;2023-07-16T01:21:35;8.82;;;2.13;;
79616;SDS011;69097;52.132;5.422;2023-07-16T01:24:36;7.43;;;1.95;;
79616;SDS011;69097;52.132;5.422;2023-07-16T01:30:50;17.27;;;3.00;;
79616;SDS011;69097;52.132;5.422;2023-07-16T01:33:19;6.82;;;2.28;;
79616;SDS011;69097;52.132;5.422;2023-07-16T01:35:48;9.02;;;2.03;;
79616;SDS011;69097;52.132;5.422;2023-07-16T01:38:18;5.78;;;2.28;;
79616;SDS011;69097;52.132;5.422;2023-07-16T01:40:52;11.98;;;2.63;;
79616;SDS011;69097;52.132;5.422;2023-07-16T01:43:19;8.77;;;2.40;;
79616;SDS011;69097;52.132;5.422;2023-07-16T01:45:54;6.72;;;2.40;;
79616;SDS011;69097;52.132;5.422;2023-07-16T01:48:33;9.50;;;2.47;;
79616;SDS011;69097;52.132;5.422;2023-07-16T01:51:06;7.68;;;2.47;;
79616;SDS011;69097;52.132;5.422;2023-07-16T01:54:10;5.88;;;2.63;;
79616;SDS011;69097;52.132;5.422;2023-07-16T01:56:37;6.55;;;2.35;;
79616;SDS011;69097;52.132;5.422;2023-07-16T01:59:05;7.90;;;2.63;;
79616;SDS011;69097;52.132;5.422;2023-07-16T02:01:38;6.88;;;2.10;;
79616;SDS011;69097;52.132;5.422;2023-07-16T02:04:19;6.35;;;2.13;;
79616;SDS011;69097;52.132;5.422;2023-07-16T02:07:19;11.02;;;3.15;;
79616;SDS011;69097;52.132;5.422;2023-07-16T02:09:48;11.13;;;2.88;;
79616;SDS011;69097;52.132;5.422;2023-07-16T02:12:28;10.82;;;2.65;;
79616;SDS011;69097;52.132;5.422;2023-07-16T02:14:56;8.38;;;2.97;;
79616;SDS011;69097;52.132;5.422;2023-07-16T02:17:25;10.80;;;2.88;;
79616;SDS011;69097;52.132;5.422;2023-07-16T02:19:58;7.07;;;2.47;;
79616;SDS011;69097;52.132;5.422;2023-07-16T02:23:01;9.63;;;3.03;;
79616;SDS011;69097;52.132;5.422;2023-07-16T02:25:28;10.60;;;2.80;;
79616;SDS011;69097;52.132;5.422;2023-07-16T02:27:56;9.45;;;3.40;;
79616;SDS011;69097;52.132;5.422;2023-07-16T02:30:23;11.90;;;2.83;;
79616;SDS011;69097;52.132;5.422;2023-07-16T02:33:13;10.65;;;3.50;;
79616;SDS011;69097;52.132;5.422;2023-07-16T02:35:53;11.57;;;3.20;;
79616;SDS011;69097;52.132;5.422;2023-07-16T02:38:45;10.77;;;3.13;;
79616;SDS011;69097;52.132;5.422;2023-07-16T02:41:13;10.52;;;3.13;;
79616;SDS011;69097;52.132;5.422;2023-07-16T02:44:00;12.77;;;2.90;;
79616;SDS011;69097;52.132;5.422;2023-07-16T02:46:31;10.13;;;3.05;;
79616;SDS011;69097;52.132;5.422;2023-07-16T02:49:02;9.18;;;2.92;;
79616;SDS011;69097;52.132;5.422;2023-07-16T02:51:30;10.52;;;2.85;;
79616;SDS011;69097;52.132;5.422;2023-07-16T02:54:31;9.77;;;2.55;;
79616;SDS011;69097;52.132;5.422;2023-07-16T02:57:12;9.65;;;2.08;;
79616;SDS011;69097;52.132;5.422;2023-07-16T03:02:19;9.95;;;2.67;;
79616;SDS011;69097;52.132;5.422;2023-07-16T03:04:52;8.60;;;2.97;;
79616;SDS011;69097;52.132;5.422;2023-07-16T03:07:28;11.95;;;2.72;;
79616;SDS011;69097;52.132;5.422;2023-07-16T03:09:56;7.80;;;2.53;;
79616;SDS011;69097;52.132;5.422;2023-07-16T03:12:24;9.00;;;2.90;;
79616;SDS011;69097;52.132;5.422;2023-07-16T03:14:56;8.38;;;2.65;;
79616;SDS011;69097;52.132;5.422;2023-07-16T03:17:25;11.60;;;3.30;;
79616;SDS011;69097;52.132;5.422;2023-07-16T03:19:59;11.25;;;3.03;;
79616;SDS011;69097;52.132;5.422;2023-07-16T03:22:50;8.85;;;2.47;;
79616;SDS011;69097;52.132;5.422;2023-07-16T03:25:18;7.85;;;2.83;;
79616;SDS011;69097;52.132;5.422;2023-07-16T03:28:04;10.35;;;2.65;;
79616;SDS011;69097;52.132;5.422;2023-07-16T03:30:58;8.38;;;2.45;;
79616;SDS011;69097;52.132;5.422;2023-07-16T03:34:09;8.00;;;2.63;;
79616;SDS011;69097;52.132;5.422;2023-07-16T03:36:50;13.02;;;2.83;;
79616;SDS011;69097;52.132;5.422;2023-07-16T03:39:37;9.55;;;2.88;;
79616;SDS011;69097;52.132;5.422;2023-07-16T03:42:03;7.53;;;3.03;;
79616;SDS011;69097;52.132;5.422;2023-07-16T03:44:30;10.95;;;3.08;;
79616;SDS011;69097;52.132;5.422;2023-07-16T03:46:57;9.48;;;2.88;;
79616;SDS011;69097;52.132;5.422;2023-07-16T03:49:23;10.40;;;2.35;;
79616;SDS011;69097;52.132;5.422;2023-07-16T03:51:50;7.30;;;3.10;;
79616;SDS011;69097;52.132;5.422;2023-07-16T03:54:20;9.38;;;2.28;;
79616;SDS011;69097;52.132;5.422;2023-07-16T03:56:47;11.88;;;2.63;;
79616;SDS011;69097;52.132;5.422;2023-07-16T03:59:14;7.05;;;2.67;;
79616;SDS011;69097;52.132;5.422;2023-07-16T04:01:43;10.10;;;2.42;;
79616;SDS011;69097;52.132;5.422;2023-07-16T04:04:48;9.30;;;2.75;;
79616;SDS011;69097;52.132;5.422;2023-07-16T04:07:15;8.65;;;2.97;;
79616;SDS011;69097;52.132;5.422;2023-07-16T04:10:02;6.18;;;2.53;;
79616;SDS011;69097;52.132;5.422;2023-07-16T04:12:56;10.43;;;3.60;;
79616;SDS011;69097;52.132;5.422;2023-07-16T04:15:27;8.35;;;2.80;;
79616;SDS011;69097;52.132;5.422;2023-07-16T04:18:19;8.77;;;2.92;;
79616;SDS011;69097;52.132;5.422;2023-07-16T04:21:10;10.85;;;2.42;;
79616;SDS011;69097;52.132;5.422;2023-07-16T04:24:03;7.57;;;3.20;;
79616;SDS011;69097;52.132;5.422;2023-07-16T04:27:08;9.13;;;3.35;;
79616;SDS011;69097;52.132;5.422;2023-07-16T04:29:48;9.90;;;2.08;;
79616;SDS011;69097;52.132;5.422;2023-07-16T04:35:44;8.82;;;3.05;;
79616;SDS011;69097;52.132;5.422;2023-07-16T04:38:17;9.05;;;3.15;;
79616;SDS011;69097;52.132;5.422;2023-07-16T04:40:58;11.15;;;3.00;;
79616;SDS011;69097;52.132;5.422;2023-07-16T04:43:27;9.30;;;2.97;;
79616;SDS011;69097;52.132;5.422;2023-07-16T04:45:57;10.27;;;3.72;;
79616;SDS011;69097;52.132;5.422;2023-07-16T04:48:46;9.48;;;3.35;;
79616;SDS011;69097;52.132;5.422;2023-07-16T04:51:30;10.38;;;3.40;;
79616;SDS011;69097;52.132;5.422;2023-07-16T04:54:10;11.63;;;3.60;;
79616;SDS011;69097;52.132;5.422;2023-07-16T04:56:57;9.20;;;3.22;;
79616;SDS011;69097;52.132;5.422;2023-07-16T04:59:40;10.15;;;3.33;;
79616;SDS011;69097;52.132;5.422;2023-07-16T05:02:12;10.50;;;3.67;;
79616;SDS011;69097;52.132;5.422;2023-07-16T05:05:14;9.50;;;2.80;;
79616;SDS011;69097;52.132;5.422;2023-07-16T05:07:45;7.72;;;3.15;;
79616;SDS011;69097;52.132;5.422;2023-07-16T05:10:59;9.88;;;3.00;;
79616;SDS011;69097;52.132;5.422;2023-07-16T05:13:40;9.55;;;4.28;;
79616;SDS011;69097;52.132;5.422;2023-07-16T05:16:20;9.38;;;3.30;;
79616;SDS011;69097;52.132;5.422;2023-07-16T05:19:45;8.07;;;3.28;;
79616;SDS011;69097;52.132;5.422;2023-07-16T05:22:53;9.55;;;4.20;;
79616;SDS011;69097;52.132;5.422;2023-07-16T05:25:37;10.70;;;3.67;;
79616;SDS011;69097;52.132;5.422;2023-07-16T05:28:42;11.15;;;3.63;;
79616;SDS011;69097;52.132;5.422;2023-07-16T05:31:32;10.65;;;4.07;;
79616;SDS011;69097;52.132;5.422;2023-07-16T05:34:04;11.85;;;3.67;;
79616;SDS011;69097;52.132;5.422;2023-07-16T05:36:55;10.90;;;3.45;;
79616;SDS011;69097;52.132;5.422;2023-07-16T05:39:58;10.85;;;3.60;;
79616;SDS011;69097;52.132;5.422;2023-07-16T05:43:21;9.60;;;3.17;;
79616;SDS011;69097;52.132;5.422;2023-07-16T05:45:56;12.65;;;3.85;;
79616;SDS011;69097;52.132;5.422;2023-07-16T05:48:28;13.07;;;4.13;;
79616;SDS011;69097;52.132;5.422;2023-07-16T05:51:06;7.85;;;3.88;;
79616;SDS011;69097;52.132;5.422;2023-07-16T05:53:53;10.85;;;3.70;;
79616;SDS011;69097;52.132;5.422;2023-07-16T05:56:34;9.57;;;3.42;;
79616;SDS011;69097;52.132;5.422;2023-07-16T05:59:29;8.20;;;3.30;;
79616;SDS011;69097;52.132;5.422;2023-07-16T06:02:30;13.52;;;4.20;;
79616;SDS011;69097;52.132;5.422;2023-07-16T06:05:26;9.77;;;3.60;;
79616;SDS011;69097;52.132;5.422;2023-07-16T06:08:00;11.07;;;4.13;;
79616;SDS011;69097;52.132;5.422;2023-07-16T06:11:01;8.75;;;3.63;;
79616;SDS011;69097;52.132;5.422;2023-07-16T06:13:37;12.23;;;4.10;;
79616;SDS011;69097;52.132;5.422;2023-07-16T06:16:06;9.18;;;4.35;;
79616;SDS011;69097;52.132;5.422;2023-07-16T06:18:53;12.55;;;3.95;;
79616;SDS011;69097;52.132;5.422;2023-07-16T06:21:27;9.15;;;3.83;;
79616;SDS011;69097;52.132;5.422;2023-07-16T06:24:34;11.23;;;3.55;;
79616;SDS011;69097;52.132;5.422;2023-07-16T06:27:18;11.95;;;4.25;;
79616;SDS011;69097;52.132;5.422;2023-07-16T06:29:45;9.90;;;3.47;;
79616;SDS011;69097;52.132;5.422;2023-07-16T06:32:12;9.15;;;3.65;;
79616;SDS011;69097;52.132;5.422;2023-07-16T06:34:38;9.30;;;3.97;;
79616;SDS011;69097;52.132;5.422;2023-07-16T06:37:05;8.75;;;3.40;;
79616;SDS011;69097;52.132;5.422;2023-07-16T06:39:34;10.93;;;4.10;;
79616;SDS011;69097;52.132;5.422;2023-07-16T06:42:01;9.05;;;4.03;;
79616;SDS011;69097;52.132;5.422;2023-07-16T06:44:27;10.40;;;3.42;;
79616;SDS011;69097;52.132;5.422;2023-07-16T06:46:54;11.25;;;4.13;;
79616;SDS011;69097;52.132;5.422;2023-07-16T06:49:21;11.43;;;4.28;;
79616;SDS011;69097;52.132;5.422;2023-07-16T06:51:47;12.13;;;4.13;;
79616;SDS011;69097;52.132;5.422;2023-07-16T06:54:14;13.63;;;5.20;;
79616;SDS011;69097;52.132;5.422;2023-07-16T06:56:40;11.63;;;4.03;;
79616;SDS011;69097;52.132;5.422;2023-07-16T06:59:06;9.93;;;3.80;;
79616;SDS011;69097;52.132;5.422;2023-07-16T07:01:32;10.80;;;3.97;;
79616;SDS011;69097;52.132;5.422;2023-07-16T07:03:57;11.45;;;3.83;;
79616;SDS011;69097;52.132;5.422;2023-07-16T07:06:23;9.18;;;4.03;;
79616;SDS011;69097;52.132;5.422;2023-07-16T07:08:49;11.90;;;4.05;;
79616;SDS011;69097;52.132;5.422;2023-07-16T07:11:14;9.73;;;3.97;;
79616;SDS011;69097;52.132;5.422;2023-07-16T07:13:39;13.10;;;4.15;;
79616;SDS011;69097;52.132;5.422;2023-07-16T07:16:05;10.45;;;3.30;;
79616;SDS011;69097;52.132;5.422;2023-07-16T07:18:30;13.02;;;3.97;;
79616;SDS011;69097;52.132;5.422;2023-07-16T07:20:56;11.45;;;4.43;;
79616;SDS011;69097;52.132;5.422;2023-07-16T07:23:21;11.45;;;4.20;;
79616;SDS011;69097;52.132;5.422;2023-07-16T07:25:50;11.55;;;4.00;;
79616;SDS011;69097;52.132;5.422;2023-07-16T07:28:16;12.82;;;4.07;;
79616;SDS011;69097;52.132;5.422;2023-07-16T07:30:43;13.82;;;4.30;;
79616;SDS011;69097;52.132;5.422;2023-07-16T07:33:09;7.82;;;4.00;;
79616;SDS011;69097;52.132;5.422;2023-07-16T07:35:34;10.45;;;4.22;;
79616;SDS011;69097;52.132;5.422;2023-07-16T07:38:00;7.90;;;3.78;;
79616;SDS011;69097;52.132;5.422;2023-07-16T07:40:26;11.15;;;3.60;;
79616;SDS011;69097;52.132;5.422;2023-07-16T07:42:52;16.55;;;4.72;;
79616;SDS011;69097;52.132;5.422;2023-07-16T07:45:17;13.40;;;4.30;;
79616;SDS011;69097;52.132;5.422;2023-07-16T07:47:43;10.30;;;4.25;;
79616;SDS011;69097;52.132;5.422;2023-07-16T07:50:08;9.43;;;4.50;;
79616;SDS011;69097;52.132;5.422;2023-07-16T07:52:56;11.07;;;4.35;;
79616;SDS011;69097;52.132;5.422;2023-07-16T07:55:25;13.25;;;4.25;;
79616;SDS011;69097;52.132;5.422;2023-07-16T07:57:51;12.20;;;4.43;;
79616;SDS011;69097;52.132;5.422;2023-07-16T08:02:46;11.27;;;2.97;;
79616;SDS011;69097;52.132;5.422;2023-07-16T08:05:13;9.63;;;3.78;;
79616;SDS011;69097;52.132;5.422;2023-07-16T08:07:40;10.30;;;3.88;;
79616;SDS011;69097;52.132;5.422;2023-07-16T08:10:06;9.85;;;2.97;;
79616;SDS011;69097;52.132;5.422;2023-07-16T08:12:35;12.25;;;4.30;;
79616;SDS011;69097;52.132;5.422;2023-07-16T08:15:05;10.00;;;4.38;;
79616;SDS011;69097;52.132;5.422;2023-07-16T08:17:33;11.27;;;4.05;;
79616;SDS011;69097;52.132;5.422;2023-07-16T08:20:00;9.02;;;3.22;;
79616;SDS011;69097;52.132;5.422;2023-07-16T08:22:27;12.57;;;4.53;;
79616;SDS011;69097;52.132;5.422;2023-07-16T08:24:54;23.95;;;4.43;;
79616;SDS011;69097;52.132;5.422;2023-07-16T08:27:21;12.02;;;4.78;;
79616;SDS011;69097;52.132;5.422;2023-07-16T08:29:47;11.93;;;5.45;;
79616;SDS011;69097;52.132;5.422;2023-07-16T08:32:13;15.55;;;4.70;;
79616;SDS011;69097;52.132;5.422;2023-07-16T08:34:40;10.57;;;4.10;;
79616;SDS011;69097;52.132;5.422;2023-07-16T08:37:06;12.32;;;4.13;;
79616;SDS011;69097;52.132;5.422;2023-07-16T08:39:33;11.60;;;4.35;;
79616;SDS011;69097;52.132;5.422;2023-07-16T08:42:00;9.25;;;4.05;;
79616;SDS011;69097;52.132;5.422;2023-07-16T08:44:28;13.55;;;4.05;;
79616;SDS011;69097;52.132;5.422;2023-07-16T08:46:56;9.90;;;4.15;;
79616;SDS011;69097;52.132;5.422;2023-07-16T08:49:23;10.32;;;4.13;;
79616;SDS011;69097;52.132;5.422;2023-07-16T08:51:49;11.73;;;4.13;;
79616;SDS011;69097;52.132;5.422;2023-07-16T08:54:18;10.63;;;4.30;;
79616;SDS011;69097;52.132;5.422;2023-07-16T08:56:46;15.23;;;5.25;;
79616;SDS011;69097;52.132;5.422;2023-07-16T08:59:17;10.60;;;4.05;;
79616;SDS011;69097;52.132;5.422;2023-07-16T09:01:44;12.38;;;5.07;;
79616;SDS011;69097;52.132;5.422;2023-07-16T09:04:16;10.57;;;4.90;;
79616;SDS011;69097;52.132;5.422;2023-07-16T09:06:43;9.75;;;4.00;;
79616;SDS011;69097;52.132;5.422;2023-07-16T09:09:28;11.13;;;4.50;;
79616;SDS011;69097;52.132;5.422;2023-07-16T09:11:56;9.93;;;3.53;;
79616;SDS011;69097;52.132;5.422;2023-07-16T09:14:23;12.27;;;4.80;;
79616;SDS011;69097;52.132;5.422;2023-07-16T09:16:53;14.50;;;4.38;;
79616;SDS011;69097;52.132;5.422;2023-07-16T09:19:20;13.30;;;4.50;;
79616;SDS011;69097;52.132;5.422;2023-07-16T09:21:48;8.63;;;3.97;;
79616;SDS011;69097;52.132;5.422;2023-07-16T09:24:17;9.70;;;4.25;;
79616;SDS011;69097;52.132;5.422;2023-07-16T09:26:53;11.75;;;4.22;;
79616;SDS011;69097;52.132;5.422;2023-07-16T09:29:24;9.02;;;4.13;;
79616;SDS011;69097;52.132;5.422;2023-07-16T09:31:57;11.63;;;4.25;;
79616;SDS011;69097;52.132;5.422;2023-07-16T09:34:29;11.48;;;3.58;;
79616;SDS011;69097;52.132;5.422;2023-07-16T09:37:00;13.35;;;4.22;;
79616;SDS011;69097;52.132;5.422;2023-07-16T09:39:27;8.98;;;3.72;;
79616;SDS011;69097;52.132;5.422;2023-07-16T09:41:54;12.38;;;3.80;;
79616;SDS011;69097;52.132;5.422;2023-07-16T09:44:23;9.05;;;3.65;;
79616;SDS011;69097;52.132;5.422;2023-07-16T09:46:50;9.75;;;3.83;;
79616;SDS011;69097;52.132;5.422;2023-07-16T09:49:17;9.05;;;3.92;;
79616;SDS011;69097;52.132;5.422;2023-07-16T09:51:45;12.05;;;4.00;;
79616;SDS011;69097;52.132;5.422;2023-07-16T09:54:14;9.70;;;4.18;;
79616;SDS011;69097;52.132;5.422;2023-07-16T09:56:46;10.55;;;3.67;;
79616;SDS011;69097;52.132;5.422;2023-07-16T09:59:53;11.32;;;3.50;;
79616;SDS011;69097;52.132;5.422;2023-07-16T10:03:01;10.02;;;3.75;;
79616;SDS011;69097;52.132;5.422;2023-07-16T10:05:28;8.88;;;3.60;;
79616;SDS011;69097;52.132;5.422;2023-07-16T10:08:15;9.50;;;3.22;;
79616;SDS011;69097;52.132;5.422;2023-07-16T10:13:21;11.77;;;4.57;;
79616;SDS011;69097;52.132;5.422;2023-07-16T10:15:53;10.63;;;4.35;;
79616;SDS011;69097;52.132;5.422;2023-07-16T10:18:39;12.60;;;3.80;;
79616;SDS011;69097;52.132;5.422;2023-07-16T10:21:06;14.68;;;3.45;;
79616;SDS011;69097;52.132;5.422;2023-07-16T10:23:41;9.77;;;4.07;;
79616;SDS011;69097;52.132;5.422;2023-07-16T10:26:10;10.02;;;3.70;;
79616;SDS011;69097;52.132;5.422;2023-07-16T10:28:43;8.43;;;3.80;;
79616;SDS011;69097;52.132;5.422;2023-07-16T10:31:25;9.25;;;4.05;;
79616;SDS011;69097;52.132;5.422;2023-07-16T10:33:59;11.70;;;4.07;;
79616;SDS011;69097;52.132;5.422;2023-07-16T10:36:30;8.70;;;4.45;;
79616;SDS011;69097;52.132;5.422;2023-07-16T10:39:03;9.73;;;3.60;;
79616;SDS011;69097;52.132;5.422;2023-07-16T10:41:30;11.10;;;3.95;;
79616;SDS011;69097;52.132;5.422;2023-07-16T10:43:59;12.15;;;3.97;;
79616;SDS011;69097;52.132;5.422;2023-07-16T10:46:26;10.63;;;4.07;;
79616;SDS011;69097;52.132;5.422;2023-07-16T10:49:11;10.23;;;3.92;;
79616;SDS011;69097;52.132;5.422;2023-07-16T10:52:12;10.10;;;4.18;;
79616;SDS011;69097;52.132;5.422;2023-07-16T10:54:53;11.52;;;3.92;;
79616;SDS011;69097;52.132;5.422;2023-07-16T10:57:58;8.82;;;3.13;;
79616;SDS011;69097;52.132;5.422;2023-07-16T11:00:40;8.65;;;4.57;;
79616;SDS011;69097;52.132;5.422;2023-07-16T11:03:08;8.55;;;3.55;;
79616;SDS011;69097;52.132;5.422;2023-07-16T11:05:35;9.70;;;3.58;;
79616;SDS011;69097;52.132;5.422;2023-07-16T11:08:02;10.20;;;3.60;;
79616;SDS011;69097;52.132;5.422;2023-07-16T11:10:29;8.43;;;4.30;;
79616;SDS011;69097;52.132;5.422;2023-07-16T11:12:57;8.35;;;3.70;;
79616;SDS011;69097;52.132;5.422;2023-07-16T11:15:31;9.90;;;4.07;;
79616;SDS011;69097;52.132;5.422;2023-07-16T11:18:00;9.88;;;4.03;;
79616;SDS011;69097;52.132;5.422;2023-07-16T11:20:28;9.68;;;3.63;;
79616;SDS011;69097;52.132;5.422;2023-07-16T11:22:57;11.52;;;3.50;;
79616;SDS011;69097;52.132;5.422;2023-07-16T11:25:31;10.30;;;3.72;;
79616;SDS011;69097;52.132;5.422;2023-07-16T11:28:01;10.52;;;3.25;;
79616;SDS011;69097;52.132;5.422;2023-07-16T11:30:33;9.00;;;3.38;;
79616;SDS011;69097;52.132;5.422;2023-07-16T11:33:11;8.65;;;3.28;;
79616;SDS011;69097;52.132;5.422;2023-07-16T11:36:09;9.55;;;3.38;;
79616;SDS011;69097;52.132;5.422;2023-07-16T11:39:11;7.65;;;3.00;;
79616;SDS011;69097;52.132;5.422;2023-07-16T11:41:38;7.35;;;3.22;;
79616;SDS011;69097;52.132;5.422;2023-07-16T11:44:35;7.75;;;3.63;;
79616;SDS011;69097;52.132;5.422;2023-07-16T11:47:44;7.93;;;2.38;;
79616;SDS011;69097;52.132;5.422;2023-07-16T11:50:46;7.45;;;2.85;;
79616;SDS011;69097;52.132;5.422;2023-07-16T11:53:13;8.35;;;3.00;;
79616;SDS011;69097;52.132;5.422;2023-07-16T11:55:40;8.80;;;3.00;;
79616;SDS011;69097;52.132;5.422;2023-07-16T11:58:30;8.15;;;2.33;;
79616;SDS011;69097;52.132;5.422;2023-07-16T12:01:24;6.57;;;1.85;;
79616;SDS011;69097;52.132;5.422;2023-07-16T12:03:51;6.32;;;1.80;;
79616;SDS011;69097;52.132;5.422;2023-07-16T12:06:19;7.28;;;2.22;;
79616;SDS011;69097;52.132;5.422;2023-07-16T12:09:33;4.10;;;1.42;;
79616;SDS011;69097;52.132;5.422;2023-07-16T12:12:20;6.50;;;2.38;;
79616;SDS011;69097;52.132;5.422;2023-07-16T12:14:46;4.82;;;2.10;;
79616;SDS011;69097;52.132;5.422;2023-07-16T12:17:13;5.93;;;1.90;;
79616;SDS011;69097;52.132;5.422;2023-07-16T12:19:42;4.43;;;1.13;;
79616;SDS011;69097;52.132;5.422;2023-07-16T12:22:09;6.63;;;1.98;;
79616;SDS011;69097;52.132;5.422;2023-07-16T12:24:55;6.63;;;2.63;;
79616;SDS011;69097;52.132;5.422;2023-07-16T12:27:23;5.70;;;2.00;;
79616;SDS011;69097;52.132;5.422;2023-07-16T12:29:59;5.47;;;1.85;;
79616;SDS011;69097;52.132;5.422;2023-07-16T12:32:31;4.82;;;1.70;;
79616;SDS011;69097;52.132;5.422;2023-07-16T12:35:03;6.28;;;2.10;;
79616;SDS011;69097;52.132;5.422;2023-07-16T12:37:36;7.80;;;1.58;;
79616;SDS011;69097;52.132;5.422;2023-07-16T12:40:08;6.25;;;2.13;;
79616;SDS011;69097;52.132;5.422;2023-07-16T12:43:06;6.57;;;1.30;;
79616;SDS011;69097;52.132;5.422;2023-07-16T12:46:00;6.10;;;1.52;;
79616;SDS011;69097;52.132;5.422;2023-07-16T12:48:55;7.78;;;2.13;;
79616;SDS011;69097;52.132;5.422;2023-07-16T12:51:36;6.03;;;1.77;;
79616;SDS011;69097;52.132;5.422;2023-07-16T12:54:05;5.78;;;1.65;;
79616;SDS011;69097;52.132;5.422;2023-07-16T12:56:38;6.30;;;0.88;;
79616;SDS011;69097;52.132;5.422;2023-07-16T12:59:06;8.65;;;1.15;;
79616;SDS011;69097;52.132;5.422;2023-07-16T13:01:53;5.05;;;1.00;;
79616;SDS011;69097;52.132;5.422;2023-07-16T13:04:35;5.50;;;1.52;;
79616;SDS011;69097;52.132;5.422;2023-07-16T13:07:11;6.32;;;1.42;;
79616;SDS011;69097;52.132;5.422;2023-07-16T13:09:45;5.55;;;1.63;;
79616;SDS011;69097;52.132;5.422;2023-07-16T13:12:24;4.50;;;1.75;;
79616;SDS011;69097;52.132;5.422;2023-07-16T13:15:15;5.63;;;1.48;;
79616;SDS011;69097;52.132;5.422;2023-07-16T13:17:50;6.55;;;1.98;;
79616;SDS011;69097;52.132;5.422;2023-07-16T13:20:24;8.88;;;1.40;;
79616;SDS011;69097;52.132;5.422;2023-07-16T13:22:53;4.30;;;0.90;;
79616;SDS011;69097;52.132;5.422;2023-07-16T13:25:28;5.32;;;1.50;;
79616;SDS011;69097;52.132;5.422;2023-07-16T13:28:06;5.63;;;1.38;;
79616;SDS011;69097;52.132;5.422;2023-07-16T13:30:57;8.23;;;1.58;;
79616;SDS011;69097;52.132;5.422;2023-07-16T13:33:31;5.38;;;1.40;;
79616;SDS011;69097;52.132;5.422;2023-07-16T13:36:03;5.63;;;1.23;;
79616;SDS011;69097;52.132;5.422;2023-07-16T13:38:54;7.10;;;1.58;;
79616;SDS011;69097;52.132;5.422;2023-07-16T13:41:30;5.20;;;0.80;;
79616;SDS011;69097;52.132;5.422;2023-07-16T13:44:30;5.47;;;1.38;;
79616;SDS011;69097;52.132;5.422;2023-07-16T13:47:57;4.00;;;1.48;;
79616;SDS011;69097;52.132;5.422;2023-07-16T13:50:39;5.28;;;1.30;;
79616;SDS011;69097;52.132;5.422;2023-07-16T13:53:17;4.95;;;1.50;;
79616;SDS011;69097;52.132;5.422;2023-07-16T13:56:23;4.68;;;1.52;;
79616;SDS011;69097;52.132;5.422;2023-07-16T13:59:18;6.22;;;1.60;;
79616;SDS011;69097;52.132;5.422;2023-07-16T14:02:03;5.78;;;0.80;;
79616;SDS011;69097;52.132;5.422;2023-07-16T14:05:07;6.45;;;0.90;;
79616;SDS011;69097;52.132;5.422;2023-07-16T14:07:48;5.53;;;1.38;;
79616;SDS011;69097;52.132;5.422;2023-07-16T14:10:32;6.75;;;1.55;;
79616;SDS011;69097;52.132;5.422;2023-07-16T14:13:51;3.85;;;1.00;;
79616;SDS011;69097;52.132;5.422;2023-07-16T14:16:33;4.43;;;1.60;;
79616;SDS011;69097;52.132;5.422;2023-07-16T14:19:40;8.88;;;0.80;;
79616;SDS011;69097;52.132;5.422;2023-07-16T14:22:15;5.35;;;0.70;;
79616;SDS011;69097;52.132;5.422;2023-07-16T14:24:57;4.85;;;0.80;;
79616;SDS011;69097;52.132;5.422;2023-07-16T14:27:32;6.78;;;1.20;;
79616;SDS011;69097;52.132;5.422;2023-07-16T14:30:29;4.88;;;0.80;;
79616;SDS011;69097;52.132;5.422;2023-07-16T14:33:13;6.47;;;1.15;;
79616;SDS011;69097;52.132;5.422;2023-07-16T14:35:56;6.30;;;1.50;;
79616;SDS011;69097;52.132;5.422;2023-07-16T14:38:37;8.65;;;1.20;;
79616;SDS011;69097;52.132;5.422;2023-07-16T14:41:05;5.57;;;1.63;;
79616;SDS011;69097;52.132;5.422;2023-07-16T14:43:57;4.03;;;1.13;;
79616;SDS011;69097;52.132;5.422;2023-07-16T14:46:33;6.25;;;1.20;;
79616;SDS011;69097;52.132;5.422;2023-07-16T14:49:04;5.45;;;2.05;;
79616;SDS011;69097;52.132;5.422;2023-07-16T14:51:36;5.90;;;1.27;;
79616;SDS011;69097;52.132;5.422;2023-07-16T14:54:31;5.88;;;1.85;;
79616;SDS011;69097;52.132;5.422;2023-07-16T14:57:04;6.53;;;1.40;;
79616;SDS011;69097;52.132;5.422;2023-07-16T14:59:58;6.75;;;1.63;;
79616;SDS011;69097;52.132;5.422;2023-07-16T15:03:03;8.93;;;1.70;;
79616;SDS011;69097;52.132;5.422;2023-07-16T15:05:34;6.85;;;1.77;;
79616;SDS011;69097;52.132;5.422;2023-07-16T15:08:11;6.95;;;1.50;;
79616;SDS011;69097;52.132;5.422;2023-07-16T15:10:53;6.90;;;1.88;;
79616;SDS011;69097;52.132;5.422;2023-07-16T15:13:48;6.68;;;1.55;;
79616;SDS011;69097;52.132;5.422;2023-07-16T15:16:45;6.10;;;1.60;;
79616;SDS011;69097;52.132;5.422;2023-07-16T15:19:41;4.63;;;1.45;;
79616;SDS011;69097;52.132;5.422;2023-07-16T15:22:12;7.63;;;1.63;;
79616;SDS011;69097;52.132;5.422;2023-07-16T15:24:49;6.90;;;1.83;;
79616;SDS011;69097;52.132;5.422;2023-07-16T15:27:19;5.82;;;1.60;;
79616;SDS011;69097;52.132;5.422;2023-07-16T15:30:23;6.13;;;1.65;;
79616;SDS011;69097;52.132;5.422;2023-07-16T15:33:26;5.28;;;1.40;;
79616;SDS011;69097;52.132;5.422;2023-07-16T15:36:12;5.50;;;1.33;;
79616;SDS011;69097;52.132;5.422;2023-07-16T15:39:02;6.68;;;1.00;;
79616;SDS011;69097;52.132;5.422;2023-07-16T15:41:44;5.43;;;0.70;;
79616;SDS011;69097;52.132;5.422;2023-07-16T15:44:15;5.82;;;1.48;;
79616;SDS011;69097;52.132;5.422;2023-07-16T15:47:16;7.22;;;1.45;;
79616;SDS011;69097;52.132;5.422;2023-07-16T15:50:40;5.10;;;1.27;;
79616;SDS011;69097;52.132;5.422;2023-07-16T15:53:48;5.07;;;1.13;;
79616;SDS011;69097;52.132;5.422;2023-07-16T15:56:40;7.25;;;2.00;;
79616;SDS011;69097;52.132;5.422;2023-07-16T15:59:26;6.47;;;1.05;;
79616;SDS011;69097;52.132;5.422;2023-07-16T16:02:09;6.35;;;1.52;;
79616;SDS011;69097;52.132;5.422;2023-07-16T16:05:16;6.25;;;1.30;;
79616;SDS011;69097;52.132;5.422;2023-07-16T16:08:11;7.85;;;1.50;;